sensor_id;sensor_type;location;lat;lon;timestamp;P1;durP1;ratioP1;P2;durP2;ratioP2
18653;SDS011;9456;47.824;16.228;2023-08-30T00:00:28;0.20;;;0.20;;
18653;SDS011;9456;47.824;16.228;2023-08-30T00:02:58;0.20;;;0.20;;
18653;SDS011;9456;47.824;16.228;2023-08-30T00:05:28;0.20;;;0.20;;
18653;SDS011;9456;47.824;16.228;2023-08-30T00:07:57;0.20;;;0.20;;
18653;SDS011;9456;47.824;16.228;2023-08-30T00:10:30;0.50;;;0.30;;
18653;SDS011;9456;47.824;16.228;2023-08-30T00:13:01;0.27;;;0.27;;
18653;SDS011;9456;47.824;16.228;2023-08-30T00:15:34;0.13;;;0.13;;
18653;SDS011;9456;47.824;16.228;2023-08-30T00:18:04;0.10;;;0.10;;
18653;SDS011;9456;47.824;16.228;2023-08-30T00:20:40;0.20;;;0.20;;
18653;SDS011;9456;47.824;16.228;2023-08-30T00:23:09;1.40;;;0.20;;
18653;SDS011;9456;47.824;16.228;2023-08-30T00:25:38;0.43;;;0.30;;
18653;SDS011;9456;47.824;16.228;2023-08-30T00:34:15;0.30;;;0.30;;
18653;SDS011;9456;47.824;16.228;2023-08-30T00:36:44;0.50;;;0.20;;
18653;SDS011;9456;47.824;16.228;2023-08-30T00:39:16;0.30;;;0.10;;
18653;SDS011;9456;47.824;16.228;2023-08-30T00:41:45;1.27;;;0.27;;
18653;SDS011;9456;47.824;16.228;2023-08-30T00:44:15;0.30;;;0.30;;
18653;SDS011;9456;47.824;16.228;2023-08-30T00:46:44;0.53;;;0.20;;
18653;SDS011;9456;47.824;16.228;2023-08-30T00:49:15;1.97;;;0.67;;
18653;SDS011;9456;47.824;16.228;2023-08-30T01:02:58;0.20;;;0.17;;
18653;SDS011;9456;47.824;16.228;2023-08-30T01:08:03;1.13;;;0.33;;
18653;SDS011;9456;47.824;16.228;2023-08-30T01:10:37;0.20;;;0.20;;
18653;SDS011;9456;47.824;16.228;2023-08-30T01:13:08;0.20;;;0.20;;
18653;SDS011;9456;47.824;16.228;2023-08-30T01:15:37;0.30;;;0.30;;
18653;SDS011;9456;47.824;16.228;2023-08-30T01:18:07;0.23;;;0.10;;
18653;SDS011;9456;47.824;16.228;2023-08-30T01:20:37;0.10;;;0.10;;
18653;SDS011;9456;47.824;16.228;2023-08-30T01:23:11;0.10;;;0.10;;
18653;SDS011;9456;47.824;16.228;2023-08-30T01:25:46;0.20;;;0.20;;
18653;SDS011;9456;47.824;16.228;2023-08-30T01:28:33;0.10;;;0.10;;
18653;SDS011;9456;47.824;16.228;2023-08-30T01:31:02;0.20;;;0.20;;
18653;SDS011;9456;47.824;16.228;2023-08-30T01:33:38;1.50;;;0.20;;
18653;SDS011;9456;47.824;16.228;2023-08-30T01:36:08;0.07;;;0.07;;
18653;SDS011;9456;47.824;16.228;2023-08-30T01:38:37;0.43;;;0.17;;
18653;SDS011;9456;47.824;16.228;2023-08-30T01:41:06;1.60;;;0.30;;
18653;SDS011;9456;47.824;16.228;2023-08-30T01:43:35;0.20;;;0.20;;
18653;SDS011;9456;47.824;16.228;2023-08-30T01:46:08;0.17;;;0.17;;
18653;SDS011;9456;47.824;16.228;2023-08-30T01:48:38;0.13;;;0.13;;
18653;SDS011;9456;47.824;16.228;2023-08-30T01:51:07;0.33;;;0.33;;
18653;SDS011;9456;47.824;16.228;2023-08-30T01:53:36;0.20;;;0.20;;
18653;SDS011;9456;47.824;16.228;2023-08-30T01:56:05;0.47;;;0.40;;
18653;SDS011;9456;47.824;16.228;2023-08-30T01:58:37;0.27;;;0.27;;
18653;SDS011;9456;47.824;16.228;2023-08-30T02:01:09;0.20;;;0.20;;
18653;SDS011;9456;47.824;16.228;2023-08-30T02:03:39;0.97;;;0.77;;
18653;SDS011;9456;47.824;16.228;2023-08-30T02:06:08;0.30;;;0.30;;
18653;SDS011;9456;47.824;16.228;2023-08-30T02:08:40;0.33;;;0.33;;
18653;SDS011;9456;47.824;16.228;2023-08-30T02:11:15;0.30;;;0.30;;
18653;SDS011;9456;47.824;16.228;2023-08-30T02:13:43;0.20;;;0.20;;
18653;SDS011;9456;47.824;16.228;2023-08-30T02:16:14;0.27;;;0.27;;
18653;SDS011;9456;47.824;16.228;2023-08-30T02:18:43;0.30;;;0.30;;
18653;SDS011;9456;47.824;16.228;2023-08-30T02:21:12;0.93;;;0.20;;
18653;SDS011;9456;47.824;16.228;2023-08-30T02:23:41;0.40;;;0.40;;
18653;SDS011;9456;47.824;16.228;2023-08-30T02:26:12;0.20;;;0.20;;
18653;SDS011;9456;47.824;16.228;2023-08-30T02:28:44;0.37;;;0.37;;
18653;SDS011;9456;47.824;16.228;2023-08-30T02:31:13;0.30;;;0.30;;
18653;SDS011;9456;47.824;16.228;2023-08-30T02:33:45;0.30;;;0.30;;
18653;SDS011;9456;47.824;16.228;2023-08-30T02:36:14;0.27;;;0.27;;
18653;SDS011;9456;47.824;16.228;2023-08-30T02:38:43;0.50;;;0.50;;
18653;SDS011;9456;47.824;16.228;2023-08-30T02:41:12;1.07;;;0.40;;
18653;SDS011;9456;47.824;16.228;2023-08-30T02:43:43;0.50;;;0.50;;
18653;SDS011;9456;47.824;16.228;2023-08-30T02:46:14;0.30;;;0.30;;
18653;SDS011;9456;47.824;16.228;2023-08-30T02:48:56;0.70;;;0.43;;
18653;SDS011;9456;47.824;16.228;2023-08-30T02:51:34;1.07;;;0.50;;
18653;SDS011;9456;47.824;16.228;2023-08-30T02:54:12;0.50;;;0.50;;
18653;SDS011;9456;47.824;16.228;2023-08-30T02:56:41;0.30;;;0.30;;
18653;SDS011;9456;47.824;16.228;2023-08-30T02:59:10;302.87;;;47.40;;
18653;SDS011;9456;47.824;16.228;2023-08-30T03:01:40;1.50;;;0.27;;
18653;SDS011;9456;47.824;16.228;2023-08-30T03:04:09;0.43;;;0.43;;
18653;SDS011;9456;47.824;16.228;2023-08-30T03:06:38;0.50;;;0.50;;
18653;SDS011;9456;47.824;16.228;2023-08-30T03:09:19;2.03;;;0.60;;
18653;SDS011;9456;47.824;16.228;2023-08-30T03:11:48;0.63;;;0.30;;
18653;SDS011;9456;47.824;16.228;2023-08-30T03:14:18;0.40;;;0.40;;
18653;SDS011;9456;47.824;16.228;2023-08-30T03:19:54;0.50;;;0.50;;
18653;SDS011;9456;47.824;16.228;2023-08-30T03:25:04;1.40;;;0.47;;
18653;SDS011;9456;47.824;16.228;2023-08-30T03:27:38;0.40;;;0.40;;
18653;SDS011;9456;47.824;16.228;2023-08-30T03:30:14;0.30;;;0.30;;
18653;SDS011;9456;47.824;16.228;2023-08-30T03:43:58;0.50;;;0.50;;
18653;SDS011;9456;47.824;16.228;2023-08-30T03:46:29;0.80;;;0.80;;
18653;SDS011;9456;47.824;16.228;2023-08-30T03:49:01;1.70;;;0.80;;
18653;SDS011;9456;47.824;16.228;2023-08-30T03:51:36;0.57;;;0.57;;
18653;SDS011;9456;47.824;16.228;2023-08-30T03:57:01;0.63;;;0.63;;
18653;SDS011;9456;47.824;16.228;2023-08-30T03:59:30;0.97;;;0.80;;
18653;SDS011;9456;47.824;16.228;2023-08-30T04:05:08;0.57;;;0.57;;
18653;SDS011;9456;47.824;16.228;2023-08-30T04:07:48;2.10;;;1.10;;
18653;SDS011;9456;47.824;16.228;2023-08-30T04:10:18;0.80;;;0.80;;
18653;SDS011;9456;47.824;16.228;2023-08-30T04:12:50;0.77;;;0.77;;
18653;SDS011;9456;47.824;16.228;2023-08-30T04:15:24;1.07;;;0.70;;
18653;SDS011;9456;47.824;16.228;2023-08-30T04:17:53;1.17;;;0.87;;
18653;SDS011;9456;47.824;16.228;2023-08-30T04:20:26;0.63;;;0.63;;
18653;SDS011;9456;47.824;16.228;2023-08-30T04:22:55;0.80;;;0.80;;
18653;SDS011;9456;47.824;16.228;2023-08-30T04:25:24;0.60;;;0.60;;
18653;SDS011;9456;47.824;16.228;2023-08-30T04:27:55;0.60;;;0.60;;
18653;SDS011;9456;47.824;16.228;2023-08-30T04:36:12;0.87;;;0.70;;
18653;SDS011;9456;47.824;16.228;2023-08-30T04:38:41;0.60;;;0.60;;
18653;SDS011;9456;47.824;16.228;2023-08-30T04:41:10;0.80;;;0.80;;
18653;SDS011;9456;47.824;16.228;2023-08-30T04:43:39;0.93;;;0.93;;
18653;SDS011;9456;47.824;16.228;2023-08-30T04:46:08;2.07;;;1.97;;
18653;SDS011;9456;47.824;16.228;2023-08-30T04:48:37;2.33;;;2.07;;
18653;SDS011;9456;47.824;16.228;2023-08-30T04:51:06;1.97;;;1.67;;
18653;SDS011;9456;47.824;16.228;2023-08-30T04:53:35;1.70;;;1.20;;
18653;SDS011;9456;47.824;16.228;2023-08-30T04:56:12;1.03;;;0.80;;
18653;SDS011;9456;47.824;16.228;2023-08-30T04:58:41;0.97;;;0.87;;
18653;SDS011;9456;47.824;16.228;2023-08-30T05:01:10;0.57;;;0.57;;
18653;SDS011;9456;47.824;16.228;2023-08-30T05:03:40;0.53;;;0.53;;
18653;SDS011;9456;47.824;16.228;2023-08-30T05:06:10;1.03;;;0.60;;
18653;SDS011;9456;47.824;16.228;2023-08-30T05:08:39;2.20;;;0.90;;
18653;SDS011;9456;47.824;16.228;2023-08-30T05:11:08;1.03;;;0.60;;
18653;SDS011;9456;47.824;16.228;2023-08-30T05:19:47;1.53;;;0.50;;
18653;SDS011;9456;47.824;16.228;2023-08-30T05:22:18;0.63;;;0.63;;
18653;SDS011;9456;47.824;16.228;2023-08-30T05:24:49;0.77;;;0.77;;
18653;SDS011;9456;47.824;16.228;2023-08-30T05:32:16;1.73;;;0.70;;
18653;SDS011;9456;47.824;16.228;2023-08-30T05:34:49;0.90;;;0.63;;
18653;SDS011;9456;47.824;16.228;2023-08-30T05:37:19;1.17;;;0.80;;
18653;SDS011;9456;47.824;16.228;2023-08-30T05:39:50;1.40;;;0.77;;
18653;SDS011;9456;47.824;16.228;2023-08-30T05:42:30;2.43;;;0.90;;
18653;SDS011;9456;47.824;16.228;2023-08-30T05:45:00;0.60;;;0.60;;
18653;SDS011;9456;47.824;16.228;2023-08-30T05:47:30;1.87;;;0.80;;
18653;SDS011;9456;47.824;16.228;2023-08-30T05:52:35;1.20;;;0.70;;
18653;SDS011;9456;47.824;16.228;2023-08-30T05:55:06;1.93;;;0.80;;
18653;SDS011;9456;47.824;16.228;2023-08-30T05:57:36;0.60;;;0.60;;
18653;SDS011;9456;47.824;16.228;2023-08-30T06:00:11;0.80;;;0.80;;
18653;SDS011;9456;47.824;16.228;2023-08-30T06:02:44;0.70;;;0.70;;
18653;SDS011;9456;47.824;16.228;2023-08-30T06:05:13;2.90;;;0.70;;
18653;SDS011;9456;47.824;16.228;2023-08-30T06:12:48;1.67;;;0.73;;
18653;SDS011;9456;47.824;16.228;2023-08-30T06:15:18;1.63;;;1.00;;
18653;SDS011;9456;47.824;16.228;2023-08-30T06:17:47;1.87;;;0.93;;
18653;SDS011;9456;47.824;16.228;2023-08-30T06:20:16;1.10;;;1.00;;
18653;SDS011;9456;47.824;16.228;2023-08-30T06:22:45;0.97;;;0.70;;
18653;SDS011;9456;47.824;16.228;2023-08-30T06:25:14;0.40;;;0.40;;
18653;SDS011;9456;47.824;16.228;2023-08-30T06:27:57;0.50;;;0.50;;
18653;SDS011;9456;47.824;16.228;2023-08-30T06:30:28;0.57;;;0.57;;
18653;SDS011;9456;47.824;16.228;2023-08-30T06:33:00;0.53;;;0.50;;
18653;SDS011;9456;47.824;16.228;2023-08-30T06:38:10;1999.90;;;999.90;;
18653;SDS011;9456;47.824;16.228;2023-08-30T06:40:44;1999.90;;;999.90;;
18653;SDS011;9456;47.824;16.228;2023-08-30T06:43:13;1999.90;;;999.90;;
18653;SDS011;9456;47.824;16.228;2023-08-30T06:45:42;1999.90;;;999.90;;
18653;SDS011;9456;47.824;16.228;2023-08-30T06:48:13;1999.90;;;999.90;;
18653;SDS011;9456;47.824;16.228;2023-08-30T06:50:43;1999.90;;;999.90;;
18653;SDS011;9456;47.824;16.228;2023-08-30T06:53:12;1999.90;;;999.90;;
18653;SDS011;9456;47.824;16.228;2023-08-30T06:55:48;1999.90;;;999.90;;
18653;SDS011;9456;47.824;16.228;2023-08-30T07:01:22;1999.90;;;999.90;;
18653;SDS011;9456;47.824;16.228;2023-08-30T07:06:40;1999.90;;;999.90;;
18653;SDS011;9456;47.824;16.228;2023-08-30T07:09:10;1999.90;;;999.90;;
18653;SDS011;9456;47.824;16.228;2023-08-30T07:11:41;1999.90;;;999.90;;
18653;SDS011;9456;47.824;16.228;2023-08-30T07:14:14;1999.90;;;999.90;;
18653;SDS011;9456;47.824;16.228;2023-08-30T07:16:50;1999.90;;;999.90;;
18653;SDS011;9456;47.824;16.228;2023-08-30T07:19:21;1999.90;;;999.90;;
18653;SDS011;9456;47.824;16.228;2023-08-30T07:21:50;347.10;;;156.20;;
18653;SDS011;9456;47.824;16.228;2023-08-30T07:24:24;1999.90;;;999.90;;
18653;SDS011;9456;47.824;16.228;2023-08-30T07:26:53;142.20;;;73.17;;
18653;SDS011;9456;47.824;16.228;2023-08-30T07:35:01;0.60;;;0.60;;
18653;SDS011;9456;47.824;16.228;2023-08-30T07:37:31;0.80;;;0.80;;
18653;SDS011;9456;47.824;16.228;2023-08-30T07:40:02;33.63;;;12.53;;
18653;SDS011;9456;47.824;16.228;2023-08-30T07:42:35;33.20;;;29.70;;
18653;SDS011;9456;47.824;16.228;2023-08-30T07:45:05;50.00;;;11.13;;
18653;SDS011;9456;47.824;16.228;2023-08-30T07:47:35;31.00;;;29.57;;
18653;SDS011;9456;47.824;16.228;2023-08-30T07:50:06;59.03;;;39.73;;
18653;SDS011;9456;47.824;16.228;2023-08-30T07:55:58;98.03;;;83.97;;
18653;SDS011;9456;47.824;16.228;2023-08-30T07:58:28;2.10;;;2.00;;
18653;SDS011;9456;47.824;16.228;2023-08-30T08:00:57;754.33;;;376.17;;
18653;SDS011;9456;47.824;16.228;2023-08-30T08:03:27;1427.93;;;696.80;;
18653;SDS011;9456;47.824;16.228;2023-08-30T08:05:57;0.63;;;0.63;;
18653;SDS011;9456;47.824;16.228;2023-08-30T08:08:27;0.70;;;0.70;;
18653;SDS011;9456;47.824;16.228;2023-08-30T08:11:00;0.67;;;0.67;;
18653;SDS011;9456;47.824;16.228;2023-08-30T08:13:29;0.60;;;0.60;;
18653;SDS011;9456;47.824;16.228;2023-08-30T08:15:57;200.87;;;11.73;;
18653;SDS011;9456;47.824;16.228;2023-08-30T08:18:27;0.17;;;0.17;;
18653;SDS011;9456;47.824;16.228;2023-08-30T08:20:56;0.20;;;0.20;;
18653;SDS011;9456;47.824;16.228;2023-08-30T08:23:25;0.30;;;0.30;;
18653;SDS011;9456;47.824;16.228;2023-08-30T08:25:58;0.57;;;0.10;;
18653;SDS011;9456;47.824;16.228;2023-08-30T08:31:17;0.10;;;0.10;;
18653;SDS011;9456;47.824;16.228;2023-08-30T08:33:49;0.30;;;0.30;;
18653;SDS011;9456;47.824;16.228;2023-08-30T08:36:39;0.40;;;0.40;;
18653;SDS011;9456;47.824;16.228;2023-08-30T08:39:09;0.30;;;0.30;;
18653;SDS011;9456;47.824;16.228;2023-08-30T08:41:39;0.30;;;0.30;;
18653;SDS011;9456;47.824;16.228;2023-08-30T08:49:45;0.40;;;0.40;;
18653;SDS011;9456;47.824;16.228;2023-08-30T08:52:14;0.17;;;0.17;;
18653;SDS011;9456;47.824;16.228;2023-08-30T08:59:45;0.40;;;0.40;;
18653;SDS011;9456;47.824;16.228;2023-08-30T09:02:14;0.20;;;0.20;;
18653;SDS011;9456;47.824;16.228;2023-08-30T09:04:43;0.20;;;0.20;;
18653;SDS011;9456;47.824;16.228;2023-08-30T09:07:12;0.10;;;0.10;;
18653;SDS011;9456;47.824;16.228;2023-08-30T09:09:42;0.50;;;0.50;;
18653;SDS011;9456;47.824;16.228;2023-08-30T09:12:11;0.70;;;0.60;;
18653;SDS011;9456;47.824;16.228;2023-08-30T09:17:39;0.30;;;0.30;;
18653;SDS011;9456;47.824;16.228;2023-08-30T09:25:44;0.20;;;0.10;;
18653;SDS011;9456;47.824;16.228;2023-08-30T09:30:52;0.10;;;0.10;;
18653;SDS011;9456;47.824;16.228;2023-08-30T09:33:29;0.10;;;0.10;;
18653;SDS011;9456;47.824;16.228;2023-08-30T09:36:00;0.40;;;0.20;;
18653;SDS011;9456;47.824;16.228;2023-08-30T09:38:29;0.77;;;0.30;;
18653;SDS011;9456;47.824;16.228;2023-08-30T09:46:28;0.40;;;0.40;;
18653;SDS011;9456;47.824;16.228;2023-08-30T09:48:57;0.20;;;0.20;;
18653;SDS011;9456;47.824;16.228;2023-08-30T09:51:26;0.20;;;0.20;;
18653;SDS011;9456;47.824;16.228;2023-08-30T09:53:56;0.30;;;0.30;;
18653;SDS011;9456;47.824;16.228;2023-08-30T09:56:24;0.40;;;0.40;;
18653;SDS011;9456;47.824;16.228;2023-08-30T09:58:53;0.43;;;0.40;;
18653;SDS011;9456;47.824;16.228;2023-08-30T10:01:21;0.67;;;0.67;;
18653;SDS011;9456;47.824;16.228;2023-08-30T10:03:50;0.60;;;0.60;;
18653;SDS011;9456;47.824;16.228;2023-08-30T10:06:20;0.50;;;0.50;;
18653;SDS011;9456;47.824;16.228;2023-08-30T10:08:49;0.23;;;0.23;;
18653;SDS011;9456;47.824;16.228;2023-08-30T10:11:19;0.40;;;0.40;;
18653;SDS011;9456;47.824;16.228;2023-08-30T10:13:48;0.30;;;0.30;;
18653;SDS011;9456;47.824;16.228;2023-08-30T10:16:19;0.40;;;0.40;;
18653;SDS011;9456;47.824;16.228;2023-08-30T10:18:47;0.23;;;0.23;;
18653;SDS011;9456;47.824;16.228;2023-08-30T10:21:16;0.50;;;0.50;;
18653;SDS011;9456;47.824;16.228;2023-08-30T10:23:45;0.40;;;0.40;;
18653;SDS011;9456;47.824;16.228;2023-08-30T10:26:14;0.50;;;0.50;;
18653;SDS011;9456;47.824;16.228;2023-08-30T10:28:43;1.23;;;0.33;;
18653;SDS011;9456;47.824;16.228;2023-08-30T10:31:16;0.43;;;0.40;;
18653;SDS011;9456;47.824;16.228;2023-08-30T10:33:52;0.40;;;0.40;;
18653;SDS011;9456;47.824;16.228;2023-08-30T10:36:21;0.43;;;0.43;;
18653;SDS011;9456;47.824;16.228;2023-08-30T10:38:51;0.27;;;0.27;;
18653;SDS011;9456;47.824;16.228;2023-08-30T10:41:23;0.50;;;0.50;;
18653;SDS011;9456;47.824;16.228;2023-08-30T10:43:58;0.53;;;0.53;;
18653;SDS011;9456;47.824;16.228;2023-08-30T10:46:31;0.47;;;0.47;;
18653;SDS011;9456;47.824;16.228;2023-08-30T10:49:10;0.60;;;0.60;;
18653;SDS011;9456;47.824;16.228;2023-08-30T10:51:41;0.60;;;0.60;;
18653;SDS011;9456;47.824;16.228;2023-08-30T10:54:13;0.50;;;0.50;;
18653;SDS011;9456;47.824;16.228;2023-08-30T10:56:54;0.57;;;0.57;;
18653;SDS011;9456;47.824;16.228;2023-08-30T10:59:23;0.70;;;0.70;;
18653;SDS011;9456;47.824;16.228;2023-08-30T11:01:53;0.63;;;0.60;;
18653;SDS011;9456;47.824;16.228;2023-08-30T11:04:22;0.87;;;0.53;;
18653;SDS011;9456;47.824;16.228;2023-08-30T11:06:52;0.83;;;0.73;;
18653;SDS011;9456;47.824;16.228;2023-08-30T11:09:22;0.87;;;0.87;;
18653;SDS011;9456;47.824;16.228;2023-08-30T11:11:50;0.70;;;0.70;;
18653;SDS011;9456;47.824;16.228;2023-08-30T11:14:19;0.80;;;0.80;;
18653;SDS011;9456;47.824;16.228;2023-08-30T11:16:48;1.50;;;0.60;;
18653;SDS011;9456;47.824;16.228;2023-08-30T11:19:17;0.47;;;0.47;;
18653;SDS011;9456;47.824;16.228;2023-08-30T11:21:48;0.50;;;0.50;;
18653;SDS011;9456;47.824;16.228;2023-08-30T11:24:16;0.80;;;0.80;;
18653;SDS011;9456;47.824;16.228;2023-08-30T11:26:45;0.70;;;0.70;;
18653;SDS011;9456;47.824;16.228;2023-08-30T11:29:14;0.53;;;0.53;;
18653;SDS011;9456;47.824;16.228;2023-08-30T11:31:44;0.47;;;0.47;;
18653;SDS011;9456;47.824;16.228;2023-08-30T11:34:13;0.50;;;0.50;;
18653;SDS011;9456;47.824;16.228;2023-08-30T11:36:42;0.60;;;0.60;;
18653;SDS011;9456;47.824;16.228;2023-08-30T11:39:12;0.60;;;0.60;;
18653;SDS011;9456;47.824;16.228;2023-08-30T11:41:41;0.80;;;0.80;;
18653;SDS011;9456;47.824;16.228;2023-08-30T11:44:17;0.70;;;0.60;;
18653;SDS011;9456;47.824;16.228;2023-08-30T11:46:58;0.70;;;0.70;;
18653;SDS011;9456;47.824;16.228;2023-08-30T11:49:27;1.67;;;0.70;;
18653;SDS011;9456;47.824;16.228;2023-08-30T11:51:56;0.60;;;0.60;;
18653;SDS011;9456;47.824;16.228;2023-08-30T11:54:25;0.40;;;0.40;;
18653;SDS011;9456;47.824;16.228;2023-08-30T11:56:54;0.30;;;0.30;;
18653;SDS011;9456;47.824;16.228;2023-08-30T11:59:37;0.60;;;0.60;;
18653;SDS011;9456;47.824;16.228;2023-08-30T12:02:07;0.60;;;0.60;;
18653;SDS011;9456;47.824;16.228;2023-08-30T12:04:40;0.40;;;0.40;;
18653;SDS011;9456;47.824;16.228;2023-08-30T12:07:20;2.30;;;0.70;;
18653;SDS011;9456;47.824;16.228;2023-08-30T12:10:03;0.40;;;0.40;;
18653;SDS011;9456;47.824;16.228;2023-08-30T12:18:45;0.63;;;0.63;;
18653;SDS011;9456;47.824;16.228;2023-08-30T12:24:21;0.60;;;0.60;;
18653;SDS011;9456;47.824;16.228;2023-08-30T12:26:50;0.70;;;0.70;;
18653;SDS011;9456;47.824;16.228;2023-08-30T12:29:19;0.60;;;0.60;;
18653;SDS011;9456;47.824;16.228;2023-08-30T12:31:53;0.40;;;0.40;;
18653;SDS011;9456;47.824;16.228;2023-08-30T12:34:23;0.60;;;0.60;;
18653;SDS011;9456;47.824;16.228;2023-08-30T12:36:52;0.57;;;0.57;;
18653;SDS011;9456;47.824;16.228;2023-08-30T12:39:26;0.60;;;0.60;;
18653;SDS011;9456;47.824;16.228;2023-08-30T12:41:56;0.60;;;0.60;;
18653;SDS011;9456;47.824;16.228;2023-08-30T12:44:25;0.80;;;0.50;;
18653;SDS011;9456;47.824;16.228;2023-08-30T12:46:54;0.47;;;0.47;;
18653;SDS011;9456;47.824;16.228;2023-08-30T12:49:24;0.50;;;0.50;;
18653;SDS011;9456;47.824;16.228;2023-08-30T12:51:54;0.63;;;0.63;;
18653;SDS011;9456;47.824;16.228;2023-08-30T12:58:07;0.60;;;0.60;;
18653;SDS011;9456;47.824;16.228;2023-08-30T13:00:37;0.70;;;0.70;;
18653;SDS011;9456;47.824;16.228;2023-08-30T13:03:06;0.83;;;0.50;;
18653;SDS011;9456;47.824;16.228;2023-08-30T13:05:35;0.57;;;0.57;;
18653;SDS011;9456;47.824;16.228;2023-08-30T13:08:04;0.53;;;0.53;;
18653;SDS011;9456;47.824;16.228;2023-08-30T13:10:33;0.47;;;0.47;;
18653;SDS011;9456;47.824;16.228;2023-08-30T13:16:24;0.60;;;0.60;;
18653;SDS011;9456;47.824;16.228;2023-08-30T13:18:57;0.67;;;0.67;;
18653;SDS011;9456;47.824;16.228;2023-08-30T13:21:26;0.70;;;0.50;;
18653;SDS011;9456;47.824;16.228;2023-08-30T13:23:55;0.43;;;0.43;;
18653;SDS011;9456;47.824;16.228;2023-08-30T13:26:25;0.40;;;0.40;;
18653;SDS011;9456;47.824;16.228;2023-08-30T13:28:54;0.63;;;0.63;;
18653;SDS011;9456;47.824;16.228;2023-08-30T13:31:23;0.77;;;0.77;;
18653;SDS011;9456;47.824;16.228;2023-08-30T13:33:54;0.70;;;0.70;;
18653;SDS011;9456;47.824;16.228;2023-08-30T13:36:23;0.50;;;0.50;;
18653;SDS011;9456;47.824;16.228;2023-08-30T13:39:01;1.23;;;1.03;;
18653;SDS011;9456;47.824;16.228;2023-08-30T13:41:31;0.60;;;0.60;;
18653;SDS011;9456;47.824;16.228;2023-08-30T13:44:02;0.70;;;0.60;;
18653;SDS011;9456;47.824;16.228;2023-08-30T13:46:34;0.60;;;0.60;;
18653;SDS011;9456;47.824;16.228;2023-08-30T13:49:03;0.40;;;0.40;;
18653;SDS011;9456;47.824;16.228;2023-08-30T13:54:16;0.83;;;0.70;;
18653;SDS011;9456;47.824;16.228;2023-08-30T13:56:48;0.60;;;0.60;;
18653;SDS011;9456;47.824;16.228;2023-08-30T13:59:17;0.50;;;0.50;;
18653;SDS011;9456;47.824;16.228;2023-08-30T14:01:48;0.73;;;0.73;;
18653;SDS011;9456;47.824;16.228;2023-08-30T14:04:18;0.67;;;0.60;;
18653;SDS011;9456;47.824;16.228;2023-08-30T14:06:47;0.77;;;0.77;;
18653;SDS011;9456;47.824;16.228;2023-08-30T14:09:16;0.60;;;0.60;;
18653;SDS011;9456;47.824;16.228;2023-08-30T14:11:48;1.27;;;0.93;;
18653;SDS011;9456;47.824;16.228;2023-08-30T14:14:20;0.63;;;0.63;;
18653;SDS011;9456;47.824;16.228;2023-08-30T14:16:49;0.40;;;0.40;;
18653;SDS011;9456;47.824;16.228;2023-08-30T14:19:19;0.80;;;0.80;;
18653;SDS011;9456;47.824;16.228;2023-08-30T14:30:20;0.70;;;0.70;;
18653;SDS011;9456;47.824;16.228;2023-08-30T14:32:52;3.73;;;0.77;;
18653;SDS011;9456;47.824;16.228;2023-08-30T14:35:21;1.90;;;0.80;;
18653;SDS011;9456;47.824;16.228;2023-08-30T14:37:50;0.60;;;0.57;;
18653;SDS011;9456;47.824;16.228;2023-08-30T14:40:19;0.77;;;0.77;;
18653;SDS011;9456;47.824;16.228;2023-08-30T14:42:48;2.10;;;0.73;;
18653;SDS011;9456;47.824;16.228;2023-08-30T14:45:17;0.73;;;0.73;;
18653;SDS011;9456;47.824;16.228;2023-08-30T14:47:46;0.90;;;0.90;;
18653;SDS011;9456;47.824;16.228;2023-08-30T14:50:16;0.80;;;0.80;;
18653;SDS011;9456;47.824;16.228;2023-08-30T14:55:28;0.97;;;0.80;;
18653;SDS011;9456;47.824;16.228;2023-08-30T14:57:58;0.77;;;0.77;;
18653;SDS011;9456;47.824;16.228;2023-08-30T15:00:27;0.53;;;0.53;;
18653;SDS011;9456;47.824;16.228;2023-08-30T15:02:56;0.83;;;0.83;;
18653;SDS011;9456;47.824;16.228;2023-08-30T15:05:25;0.63;;;0.63;;
18653;SDS011;9456;47.824;16.228;2023-08-30T15:13:31;3.80;;;1.30;;
18653;SDS011;9456;47.824;16.228;2023-08-30T15:16:01;0.80;;;0.80;;
18653;SDS011;9456;47.824;16.228;2023-08-30T15:18:38;0.90;;;0.90;;
18653;SDS011;9456;47.824;16.228;2023-08-30T15:21:10;0.73;;;0.73;;
18653;SDS011;9456;47.824;16.228;2023-08-30T15:23:40;2.70;;;1.13;;
18653;SDS011;9456;47.824;16.228;2023-08-30T15:26:09;0.70;;;0.70;;
18653;SDS011;9456;47.824;16.228;2023-08-30T15:28:38;1.13;;;1.00;;
18653;SDS011;9456;47.824;16.228;2023-08-30T15:31:09;0.87;;;0.87;;
18653;SDS011;9456;47.824;16.228;2023-08-30T15:33:39;0.70;;;0.70;;
18653;SDS011;9456;47.824;16.228;2023-08-30T15:36:09;0.83;;;0.83;;
18653;SDS011;9456;47.824;16.228;2023-08-30T15:38:41;0.90;;;0.90;;
18653;SDS011;9456;47.824;16.228;2023-08-30T15:41:12;1.37;;;0.90;;
18653;SDS011;9456;47.824;16.228;2023-08-30T15:43:42;1.07;;;1.00;;
18653;SDS011;9456;47.824;16.228;2023-08-30T15:46:21;1.90;;;0.93;;
18653;SDS011;9456;47.824;16.228;2023-08-30T15:48:56;0.70;;;0.70;;
18653;SDS011;9456;47.824;16.228;2023-08-30T15:51:25;0.80;;;0.80;;
18653;SDS011;9456;47.824;16.228;2023-08-30T15:53:58;1.00;;;1.00;;
18653;SDS011;9456;47.824;16.228;2023-08-30T15:56:27;0.70;;;0.70;;
18653;SDS011;9456;47.824;16.228;2023-08-30T15:58:56;0.53;;;0.53;;
18653;SDS011;9456;47.824;16.228;2023-08-30T16:01:25;0.60;;;0.60;;
18653;SDS011;9456;47.824;16.228;2023-08-30T16:03:54;0.60;;;0.60;;
18653;SDS011;9456;47.824;16.228;2023-08-30T16:06:23;1.20;;;0.70;;
18653;SDS011;9456;47.824;16.228;2023-08-30T16:08:52;0.53;;;0.53;;
18653;SDS011;9456;47.824;16.228;2023-08-30T16:11:24;0.67;;;0.67;;
18653;SDS011;9456;47.824;16.228;2023-08-30T16:13:53;0.60;;;0.60;;
18653;SDS011;9456;47.824;16.228;2023-08-30T16:16:22;0.60;;;0.60;;
18653;SDS011;9456;47.824;16.228;2023-08-30T16:18:55;0.87;;;0.60;;
18653;SDS011;9456;47.824;16.228;2023-08-30T16:26:42;0.50;;;0.50;;
18653;SDS011;9456;47.824;16.228;2023-08-30T16:29:15;0.90;;;0.90;;
18653;SDS011;9456;47.824;16.228;2023-08-30T16:31:44;0.70;;;0.70;;
18653;SDS011;9456;47.824;16.228;2023-08-30T16:34:16;0.40;;;0.40;;
18653;SDS011;9456;47.824;16.228;2023-08-30T16:36:46;0.70;;;0.70;;
18653;SDS011;9456;47.824;16.228;2023-08-30T16:45:35;0.87;;;0.50;;
18653;SDS011;9456;47.824;16.228;2023-08-30T16:48:06;0.90;;;0.90;;
18653;SDS011;9456;47.824;16.228;2023-08-30T16:50:35;0.80;;;0.70;;
18653;SDS011;9456;47.824;16.228;2023-08-30T16:53:04;0.70;;;0.70;;
18653;SDS011;9456;47.824;16.228;2023-08-30T16:55:35;0.87;;;0.70;;
18653;SDS011;9456;47.824;16.228;2023-08-30T16:58:04;0.77;;;0.67;;
18653;SDS011;9456;47.824;16.228;2023-08-30T17:00:33;0.57;;;0.57;;
18653;SDS011;9456;47.824;16.228;2023-08-30T17:03:05;0.80;;;0.80;;
18653;SDS011;9456;47.824;16.228;2023-08-30T17:05:38;1.00;;;1.00;;
18653;SDS011;9456;47.824;16.228;2023-08-30T17:08:13;0.90;;;0.80;;
18653;SDS011;9456;47.824;16.228;2023-08-30T17:10:42;0.80;;;0.80;;
18653;SDS011;9456;47.824;16.228;2023-08-30T17:13:14;0.90;;;0.90;;
18653;SDS011;9456;47.824;16.228;2023-08-30T17:15:43;0.83;;;0.70;;
18653;SDS011;9456;47.824;16.228;2023-08-30T17:18:12;0.80;;;0.80;;
18653;SDS011;9456;47.824;16.228;2023-08-30T17:20:41;1.23;;;0.77;;
18653;SDS011;9456;47.824;16.228;2023-08-30T17:23:10;0.43;;;0.43;;
18653;SDS011;9456;47.824;16.228;2023-08-30T17:25:39;1.60;;;0.83;;
18653;SDS011;9456;47.824;16.228;2023-08-30T17:28:08;0.60;;;0.60;;
18653;SDS011;9456;47.824;16.228;2023-08-30T17:30:37;0.60;;;0.60;;
18653;SDS011;9456;47.824;16.228;2023-08-30T17:33:06;0.67;;;0.60;;
18653;SDS011;9456;47.824;16.228;2023-08-30T17:35:35;0.70;;;0.70;;
18653;SDS011;9456;47.824;16.228;2023-08-30T17:38:04;0.70;;;0.70;;
18653;SDS011;9456;47.824;16.228;2023-08-30T17:40:34;0.63;;;0.63;;
18653;SDS011;9456;47.824;16.228;2023-08-30T17:43:05;0.70;;;0.70;;
18653;SDS011;9456;47.824;16.228;2023-08-30T17:45:32;0.70;;;0.70;;